KGED/GED METAR and TAF weather

Enter ICAO airport designator
Station Type Date Time Source
KGED METAR 2021/04/18 01:54 UTC NOAA

KGED 180154Z AUTO 00000KT 10SM CLR 11/06 A2986 RMK AO2 SLP110 T01060056 $


Station Type Date Time Source
KGED Decoded METAR 2021/04/18 01:54 UTC NOAA

GEORGETOWN SUSSEX CO AIRPORT , DE, United States (KGED) 38-41N 075-22W 19M
Apr 17, 2021 - 09:54 PM EDT / 2021.04.18 0154 UTC
Wind: Calm:0
Visibility: 10 mile(s):0
Sky conditions: clear
Temperature: 51.1 F (10.6 C)
Dew Point: 42.1 F (5.6 C)
Relative Humidity: 71%
Pressure (altimeter): 29.86 in. Hg (1011 hPa)
ob: KGED 180154Z AUTO 00000KT 10SM CLR 11/06 A2986 RMK AO2 SLP110 T01060056
cycle: 2

Station Type Date Time Source
KGED TAF UTC NOAA

Error!

Example: see airport list